Sunflower IVory — JI3634 — position and weather

sailwx.info

Track history (hours):
 
Tides and Currents Weather Stations Pressure Air Temp Water Temp Dewpoint Dewpoint Depression Visibility Wind Speed Wind Dir Waves Ship Positions

Sunflower IVory

Last reported at 2017-Nov-19 06:29 UTC. Time now 2017-Nov-19 06:38 UTC.
Position N 34°38' E 135°25'.

Length 153 m; draft 5.7 m.

Type: Ship. MMSI: 431300686.

Date/timePositionNaut miles runAvg speedWind from/ knotsBaromVisibWave heightAir tempDewpointWater temp
2017-Nov-19 06:29N 34°38' E 135°25'0 0.0
2017-Nov-19 05:53N 34°38' E 135°25'0 0.0
2017-Nov-19 05:29N 34°38' E 135°25'0 0.0
2017-Nov-19 04:59N 34°38' E 135°25'0 0.0
2017-Nov-19 04:29N 34°38' E 135°25'0 0.0
2017-Nov-19 03:59N 34°38' E 135°25'0 0.0
2017-Nov-19 03:29N 34°38' E 135°25'0 0.0
2017-Nov-19 02:59N 34°38' E 135°25'0 0.0
2017-Nov-19 02:29N 34°38' E 135°25'0 0.0
2017-Nov-19 01:59N 34°38' E 135°25'0 0.0
2017-Nov-19 01:29N 34°38' E 135°25'0 0.0
2017-Nov-19 00:53N 34°38' E 135°25'0 0.0
2017-Nov-19 00:23N 34°38' E 135°25'0 0.0
2017-Nov-18 23:59N 34°38' E 135°25'0 0.0
2017-Nov-18 23:29N 34°38' E 135°25'0 0.0
2017-Nov-18 22:59N 34°38' E 135°25'0 0.0
2017-Nov-18 22:30N 34°38' E 135°25'5 9.7
2017-Nov-18 22:00N 34°35' E 135°20'918.1
2017-Nov-18 21:30N 34°35' E 135°09'916.8
2017-Nov-18 21:00N 34°37' E 134°59'917.7
2017-Nov-18 20:28N 34°33' E 134°49'2 0.1
2017-Nov-17 12:34N 34°34' E 134°47'221.6
2017-Nov-17 12:27N 34°35' E 134°50'1021.2
2017-Nov-17 12:00N 34°37' E 135°01'1020.0
2017-Nov-17 11:30N 34°36' E 135°13'918.6
2017-Nov-17 11:01N 34°38' E 135°24'1 1.0
2017-Nov-17 10:25N 34°38' E 135°25'0 0.0
2017-Nov-17 09:55N 34°38' E 135°25'0 0.0
2017-Nov-17 09:19N 34°38' E 135°25'0 0.0
2017-Nov-17 08:55N 34°38' E 135°25'0 0.0
2017-Nov-17 08:25N 34°38' E 135°25'0 0.0
2017-Nov-17 07:55N 34°38' E 135°25'0 0.0
2017-Nov-17 07:25N 34°38' E 135°25'0 0.0
2017-Nov-17 06:55N 34°38' E 135°25'0 0.0
2017-Nov-17 06:25N 34°38' E 135°25'0 0.0
2017-Nov-17 05:55N 34°38' E 135°25'0 0.0
2017-Nov-17 05:25N 34°38' E 135°25'0 0.0
2017-Nov-17 04:55N 34°38' E 135°25'0 0.0
2017-Nov-17 04:19N 34°38' E 135°25'0 0.0
2017-Nov-17 03:49N 34°38' E 135°25'0 0.0
2017-Nov-17 03:25N 34°38' E 135°25'0 0.0
2017-Nov-17 02:55N 34°38' E 135°25'0 0.0
2017-Nov-17 02:25N 34°38' E 135°25'0 0.0
2017-Nov-17 01:01N 34°38' E 135°25'0 0.0
2017-Nov-17 00:55N 34°38' E 135°25'0 0.0
2017-Nov-17 00:25N 34°38' E 135°25'0 0.0
2017-Nov-16 23:55N 34°38' E 135°25'0 0.0
2017-Nov-16 23:25N 34°38' E 135°25'0 0.0
2017-Nov-16 22:55N 34°38' E 135°25'0 0.0
2017-Nov-16 22:19N 34°38' E 135°25'0 0.0
2017-Nov-16 21:49N 34°38' E 135°25'0 0.0
2017-Nov-16 21:31N 34°38' E 135°25'5 9.3
2017-Nov-16 21:00N 34°36' E 135°19'1020.2
2017-Nov-16 20:30N 34°34' E 135°08'917.0
2017-Nov-16 20:00N 34°37' E 134°58'11 0.3
2017-Nov-15 11:52N 34°33' E 134°46'820.4
2017-Nov-15 11:29N 34°36' E 134°55'919.0
2017-Nov-15 11:00N 34°36' E 135°05'1019.7
2017-Nov-15 10:30N 34°37' E 135°17'612.3
2017-Nov-15 10:00N 34°38' E 135°25'0 0.0
2017-Nov-15 09:29N 34°38' E 135°25'0 0.0
2017-Nov-15 08:59N 34°38' E 135°25'0 0.0
2017-Nov-15 08:29N 34°38' E 135°25'0 0.0
2017-Nov-15 07:53N 34°38' E 135°25'0 0.0
2017-Nov-15 07:23N 34°38' E 135°25'0 0.0
2017-Nov-15 06:53N 34°38' E 135°25'0 0.0
2017-Nov-15 06:23N 34°38' E 135°25'0 0.0
2017-Nov-15 05:47N 34°38' E 135°25'0 0.0
2017-Nov-15 05:29N 34°38' E 135°25'0 0.0
2017-Nov-15 04:59N 34°38' E 135°25'0 0.0
2017-Nov-15 04:29N 34°38' E 135°25'0 0.0
2017-Nov-15 03:47N 34°38' E 135°25'0 0.0
2017-Nov-15 03:29N 34°38' E 135°25'0 0.0
2017-Nov-15 02:59N 34°38' E 135°25'0 0.0
2017-Nov-15 02:29N 34°38' E 135°25'0 0.0
2017-Nov-15 01:47N 34°38' E 135°25'0 0.0
2017-Nov-15 01:29N 34°38' E 135°25'0 0.0
2017-Nov-15 00:59N 34°38' E 135°25'0 0.0
2017-Nov-15 00:29N 34°38' E 135°25'0 0.0
2017-Nov-14 23:59N 34°38' E 135°25'0 0.0
2017-Nov-14 23:23N 34°38' E 135°25'0 0.0
2017-Nov-14 23:00N 34°38' E 135°25'0 0.0
2017-Nov-14 22:30N 34°38' E 135°25'0 0.0
2017-Nov-14 22:00N 34°38' E 135°25'0 0.9
2017-Nov-14 21:31N 34°38' E 135°24'917.8
2017-Nov-14 21:00N 34°35' E 135°14'1019.0
2017-Nov-14 20:30N 34°36' E 135°02'816.2
2017-Nov-14 20:00N 34°35' E 134°53'27 0.6
2017-Nov-13 01:58N 34°38' E 135°25'0 0.0
2017-Nov-13 01:22N 34°38' E 135°25'0 0.0
2017-Nov-13 00:58N 34°38' E 135°25'0 0.0
2017-Nov-13 00:28N 34°38' E 135°25'0 0.0
2017-Nov-12 23:58N 34°38' E 135°25'0 0.0
2017-Nov-12 23:16N 34°38' E 135°25'0 0.0
2017-Nov-12 22:52N 34°38' E 135°25'0 0.0
2017-Nov-12 22:22N 34°38' E 135°25'0 0.0
2017-Nov-12 22:00N 34°38' E 135°25'0 0.2
2017-Nov-12 21:30N 34°38' E 135°25'713.1
2017-Nov-12 21:00N 34°35' E 135°18'1121.1
2017-Nov-12 20:30N 34°35' E 135°05'816.0
2017-Nov-12 20:00N 34°35' E 134°55'6 0.2
2017-Nov-11 12:39N 34°33' E 134°48'320.1
2017-Nov-11 12:29N 34°35' E 134°52'917.9
2017-Nov-11 12:00N 34°37' E 135°02'918.9
2017-Nov-11 11:30N 34°36' E 135°13'918.1
2017-Nov-11 11:00N 34°38' E 135°24'0 0.6
2017-Nov-11 10:30N 34°38' E 135°25'0 0.0
2017-Nov-11 09:57N 34°38' E 135°25'0 0.0
2017-Nov-11 09:21N 34°38' E 135°25'0 0.0
2017-Nov-11 08:45N 34°38' E 135°25'0 0.0
2017-Nov-11 08:21N 34°38' E 135°25'0 0.0
2017-Nov-11 07:57N 34°38' E 135°25'0 0.0
2017-Nov-11 07:27N 34°38' E 135°25'0 0.0
2017-Nov-11 06:51N 34°38' E 135°25'0 0.0
2017-Nov-11 06:21N 34°38' E 135°25'0 0.0
2017-Nov-11 05:57N 34°38' E 135°25'0 0.0
2017-Nov-11 05:27N 34°38' E 135°25'0 0.0
2017-Nov-11 04:57N 34°38' E 135°25'0 0.0
2017-Nov-11 04:21N 34°38' E 135°25'0 0.0
2017-Nov-11 03:57N 34°38' E 135°25'0 0.0
2017-Nov-11 03:27N 34°38' E 135°25'0 0.0
2017-Nov-11 02:45N 34°38' E 135°25'0 0.0
2017-Nov-11 02:27N 34°38' E 135°25'0 0.0
2017-Nov-11 01:57N 34°38' E 135°25'0 0.0
2017-Nov-11 01:15N 34°38' E 135°25'0 0.0
2017-Nov-11 00:57N 34°38' E 135°25'0 0.0
2017-Nov-11 00:27N 34°38' E 135°25'0 0.0
2017-Nov-10 23:57N 34°38' E 135°25'0 0.0
2017-Nov-10 23:21N 34°38' E 135°25'0 0.0
2017-Nov-10 22:57N 34°38' E 135°25'0 0.0
2017-Nov-10 22:30N 34°38' E 135°25'4 7.5
2017-Nov-10 22:00N 34°36' E 135°21'917.4
2017-Nov-10 21:30N 34°35' E 135°10'918.9
2017-Nov-10 21:00N 34°37' E 134°59'1120.8
2017-Nov-10 20:29N 34°32' E 134°48'3 0.1
2017-Nov-09 11:58N 34°33' E 134°45'920.5
2017-Nov-09 11:30N 34°36' E 134°55'917.5
2017-Nov-09 11:00N 34°35' E 135°06'1120.3
2017-Nov-09 10:29N 34°37' E 135°19'510.5
2017-Nov-09 10:00N 34°38' E 135°25'0 0.0
2017-Nov-09 09:20N 34°38' E 135°25'0 0.0
2017-Nov-09 08:55N 34°38' E 135°25'0 0.0
2017-Nov-09 08:25N 34°38' E 135°25'0 0.0
2017-Nov-09 07:49N 34°38' E 135°25'0 0.0
2017-Nov-09 07:20N 34°38' E 135°25'0 0.0
2017-Nov-09 06:55N 34°38' E 135°25'  
Track history (hours):
 
Tides and Currents Weather Stations Pressure Air Temp Water Temp Dewpoint Dewpoint Depression Visibility Wind Speed Wind Dir Waves Ship Positions

Sunflower IVory

Last reported at 2017-Nov-19 06:29 UTC. Time now 2017-Nov-19 06:38 UTC.
Position N 34°38' E 135°25'.

Length 153 m; draft 5.7 m.

Type: Ship. MMSI: 431300686.

Date/timePositionNaut miles runAvg speedWind from/ knotsBaromVisibWave heightAir tempDewpointWater temp
2017-Nov-19 06:29N 34°38' E 135°25'0 0.0
2017-Nov-19 05:53N 34°38' E 135°25'0 0.0
2017-Nov-19 05:29N 34°38' E 135°25'0 0.0
2017-Nov-19 04:59N 34°38' E 135°25'0 0.0
2017-Nov-19 04:29N 34°38' E 135°25'0 0.0
2017-Nov-19 03:59N 34°38' E 135°25'0 0.0
2017-Nov-19 03:29N 34°38' E 135°25'0 0.0
2017-Nov-19 02:59N 34°38' E 135°25'0 0.0
2017-Nov-19 02:29N 34°38' E 135°25'0 0.0
2017-Nov-19 01:59N 34°38' E 135°25'0 0.0
2017-Nov-19 01:29N 34°38' E 135°25'0 0.0
2017-Nov-19 00:53N 34°38' E 135°25'0 0.0
2017-Nov-19 00:23N 34°38' E 135°25'0 0.0
2017-Nov-18 23:59N 34°38' E 135°25'0 0.0
2017-Nov-18 23:29N 34°38' E 135°25'0 0.0
2017-Nov-18 22:59N 34°38' E 135°25'0 0.0
2017-Nov-18 22:30N 34°38' E 135°25'5 9.7
2017-Nov-18 22:00N 34°35' E 135°20'918.1
2017-Nov-18 21:30N 34°35' E 135°09'916.8
2017-Nov-18 21:00N 34°37' E 134°59'917.7
2017-Nov-18 20:28N 34°33' E 134°49'2 0.1
2017-Nov-17 12:34N 34°34' E 134°47'221.6
2017-Nov-17 12:27N 34°35' E 134°50'1021.2
2017-Nov-17 12:00N 34°37' E 135°01'1020.0
2017-Nov-17 11:30N 34°36' E 135°13'918.6
2017-Nov-17 11:01N 34°38' E 135°24'1 1.0
2017-Nov-17 10:25N 34°38' E 135°25'0 0.0
2017-Nov-17 09:55N 34°38' E 135°25'0 0.0
2017-Nov-17 09:19N 34°38' E 135°25'0 0.0
2017-Nov-17 08:55N 34°38' E 135°25'0 0.0
2017-Nov-17 08:25N 34°38' E 135°25'0 0.0
2017-Nov-17 07:55N 34°38' E 135°25'0 0.0
2017-Nov-17 07:25N 34°38' E 135°25'0 0.0
2017-Nov-17 06:55N 34°38' E 135°25'0 0.0
2017-Nov-17 06:25N 34°38' E 135°25'0 0.0
2017-Nov-17 05:55N 34°38' E 135°25'0 0.0
2017-Nov-17 05:25N 34°38' E 135°25'0 0.0
2017-Nov-17 04:55N 34°38' E 135°25'0 0.0
2017-Nov-17 04:19N 34°38' E 135°25'0 0.0
2017-Nov-17 03:49N 34°38' E 135°25'0 0.0
2017-Nov-17 03:25N 34°38' E 135°25'0 0.0
2017-Nov-17 02:55N 34°38' E 135°25'0 0.0
2017-Nov-17 02:25N 34°38' E 135°25'0 0.0
2017-Nov-17 01:01N 34°38' E 135°25'0 0.0
2017-Nov-17 00:55N 34°38' E 135°25'0 0.0
2017-Nov-17 00:25N 34°38' E 135°25'0 0.0
2017-Nov-16 23:55N 34°38' E 135°25'0 0.0
2017-Nov-16 23:25N 34°38' E 135°25'0 0.0
2017-Nov-16 22:55N 34°38' E 135°25'0 0.0
2017-Nov-16 22:19N 34°38' E 135°25'0 0.0
2017-Nov-16 21:49N 34°38' E 135°25'0 0.0
2017-Nov-16 21:31N 34°38' E 135°25'5 9.3
2017-Nov-16 21:00N 34°36' E 135°19'1020.2
2017-Nov-16 20:30N 34°34' E 135°08'917.0
2017-Nov-16 20:00N 34°37' E 134°58'11 0.3
2017-Nov-15 11:52N 34°33' E 134°46'820.4
2017-Nov-15 11:29N 34°36' E 134°55'919.0
2017-Nov-15 11:00N 34°36' E 135°05'1019.7
2017-Nov-15 10:30N 34°37' E 135°17'612.3
2017-Nov-15 10:00N 34°38' E 135°25'0 0.0
2017-Nov-15 09:29N 34°38' E 135°25'0 0.0
2017-Nov-15 08:59N 34°38' E 135°25'0 0.0
2017-Nov-15 08:29N 34°38' E 135°25'0 0.0
2017-Nov-15 07:53N 34°38' E 135°25'0 0.0
2017-Nov-15 07:23N 34°38' E 135°25'0 0.0
2017-Nov-15 06:53N 34°38' E 135°25'0 0.0
2017-Nov-15 06:23N 34°38' E 135°25'0 0.0
2017-Nov-15 05:47N 34°38' E 135°25'0 0.0
2017-Nov-15 05:29N 34°38' E 135°25'0 0.0
2017-Nov-15 04:59N 34°38' E 135°25'0 0.0
2017-Nov-15 04:29N 34°38' E 135°25'0 0.0
2017-Nov-15 03:47N 34°38' E 135°25'0 0.0
2017-Nov-15 03:29N 34°38' E 135°25'0 0.0
2017-Nov-15 02:59N 34°38' E 135°25'0 0.0
2017-Nov-15 02:29N 34°38' E 135°25'0 0.0
2017-Nov-15 01:47N 34°38' E 135°25'0 0.0
2017-Nov-15 01:29N 34°38' E 135°25'0 0.0
2017-Nov-15 00:59N 34°38' E 135°25'0 0.0
2017-Nov-15 00:29N 34°38' E 135°25'0 0.0
2017-Nov-14 23:59N 34°38' E 135°25'0 0.0
2017-Nov-14 23:23N 34°38' E 135°25'0 0.0
2017-Nov-14 23:00N 34°38' E 135°25'0 0.0
2017-Nov-14 22:30N 34°38' E 135°25'0 0.0
2017-Nov-14 22:00N 34°38' E 135°25'0 0.9
2017-Nov-14 21:31N 34°38' E 135°24'917.8
2017-Nov-14 21:00N 34°35' E 135°14'1019.0
2017-Nov-14 20:30N 34°36' E 135°02'816.2
2017-Nov-14 20:00N 34°35' E 134°53'27 0.6
2017-Nov-13 01:58N 34°38' E 135°25'0 0.0
2017-Nov-13 01:22N 34°38' E 135°25'0 0.0
2017-Nov-13 00:58N 34°38' E 135°25'0 0.0
2017-Nov-13 00:28N 34°38' E 135°25'0 0.0
2017-Nov-12 23:58N 34°38' E 135°25'0 0.0
2017-Nov-12 23:16N 34°38' E 135°25'0 0.0
2017-Nov-12 22:52N 34°38' E 135°25'0 0.0
2017-Nov-12 22:22N 34°38' E 135°25'0 0.0
2017-Nov-12 22:00N 34°38' E 135°25'0 0.2
2017-Nov-12 21:30N 34°38' E 135°25'713.1
2017-Nov-12 21:00N 34°35' E 135°18'1121.1
2017-Nov-12 20:30N 34°35' E 135°05'816.0
2017-Nov-12 20:00N 34°35' E 134°55'6 0.2
2017-Nov-11 12:39N 34°33' E 134°48'320.1
2017-Nov-11 12:29N 34°35' E 134°52'917.9
2017-Nov-11 12:00N 34°37' E 135°02'918.9
2017-Nov-11 11:30N 34°36' E 135°13'918.1
2017-Nov-11 11:00N 34°38' E 135°24'0 0.6
2017-Nov-11 10:30N 34°38' E 135°25'0 0.0
2017-Nov-11 09:57N 34°38' E 135°25'0 0.0
2017-Nov-11 09:21N 34°38' E 135°25'0 0.0
2017-Nov-11 08:45N 34°38' E 135°25'0 0.0
2017-Nov-11 08:21N 34°38' E 135°25'0 0.0
2017-Nov-11 07:57N 34°38' E 135°25'0 0.0
2017-Nov-11 07:27N 34°38' E 135°25'0 0.0
2017-Nov-11 06:51N 34°38' E 135°25'0 0.0
2017-Nov-11 06:21N 34°38' E 135°25'0 0.0
2017-Nov-11 05:57N 34°38' E 135°25'0 0.0
2017-Nov-11 05:27N 34°38' E 135°25'0 0.0
2017-Nov-11 04:57N 34°38' E 135°25'0 0.0
2017-Nov-11 04:21N 34°38' E 135°25'0 0.0
2017-Nov-11 03:57N 34°38' E 135°25'0 0.0
2017-Nov-11 03:27N 34°38' E 135°25'0 0.0
2017-Nov-11 02:45N 34°38' E 135°25'0 0.0
2017-Nov-11 02:27N 34°38' E 135°25'0 0.0
2017-Nov-11 01:57N 34°38' E 135°25'0 0.0
2017-Nov-11 01:15N 34°38' E 135°25'0 0.0
2017-Nov-11 00:57N 34°38' E 135°25'0 0.0
2017-Nov-11 00:27N 34°38' E 135°25'0 0.0
2017-Nov-10 23:57N 34°38' E 135°25'0 0.0
2017-Nov-10 23:21N 34°38' E 135°25'0 0.0
2017-Nov-10 22:57N 34°38' E 135°25'0 0.0
2017-Nov-10 22:30N 34°38' E 135°25'4 7.5
2017-Nov-10 22:00N 34°36' E 135°21'917.4
2017-Nov-10 21:30N 34°35' E 135°10'918.9
2017-Nov-10 21:00N 34°37' E 134°59'1120.8
2017-Nov-10 20:29N 34°32' E 134°48'3 0.1
2017-Nov-09 11:58N 34°33' E 134°45'920.5
2017-Nov-09 11:30N 34°36' E 134°55'917.5
2017-Nov-09 11:00N 34°35' E 135°06'1120.3
2017-Nov-09 10:29N 34°37' E 135°19'510.5
2017-Nov-09 10:00N 34°38' E 135°25'0 0.0
2017-Nov-09 09:20N 34°38' E 135°25'0 0.0
2017-Nov-09 08:55N 34°38' E 135°25'0 0.0
2017-Nov-09 08:25N 34°38' E 135°25'0 0.0
2017-Nov-09 07:49N 34°38' E 135°25'0 0.0
2017-Nov-09 07:20N 34°38' E 135°25'0 0.0
2017-Nov-09 06:55N 34°38' E 135°25'  

Dump ship's entire track history